Time;durP1;ratioP1;P1;durP2;ratioP2;P2;SDS_P1;SDS_P2;PMS_P1;PMS_P2;Temp;Humidity;BMP_temperature;BMP_pressure;BME280_temperature;BME280_humidity;BME280_pressure;Samples;Min_cycle;Max_cycle;Signal;HPM_P1;HPM_P2
2021/05/14 00:00:10;;;;;;;6.25;5.30;;;14.90;91.40;;;;;;5030876;28;20025;-75
2021/05/14 00:02:38;;;;;;;6.65;5.65;;;14.90;91.40;;;;;;5048575;28;20384;-75
2021/05/14 00:05:06;;;;;;;6.85;6.03;;;15.00;91.50;;;;;;5050917;28;20467;-75
2021/05/14 00:07:31;;;;;;;5.53;5.00;;;15.00;91.50;;;;;;5033855;28;20064;-75
2021/05/14 00:09:57;;;;;;;7.70;5.40;;;15.00;91.50;;;;;;5018384;28;20048;-74
2021/05/14 00:12:23;;;;;;;6.13;5.53;;;15.10;91.50;;;;;;5037920;28;20439;-74
2021/05/14 00:14:49;;;;;;;5.90;5.30;;;15.00;91.50;;;;;;5055146;28;20032;-75
2021/05/14 00:17:16;;;;;;;8.00;5.22;;;15.00;91.50;;;;;;5055946;28;20032;-75
2021/05/14 00:19:41;;;;;;;5.85;5.20;;;15.10;91.40;;;;;;5055547;28;20418;-75
2021/05/14 00:22:07;;;;;;;8.02;5.30;;;15.10;91.30;;;;;;5055313;28;20021;-75
2021/05/14 00:24:33;;;;;;;7.07;5.28;;;15.10;91.30;;;;;;5056481;28;20025;-76
2021/05/14 00:26:59;;;;;;;7.22;5.50;;;15.10;91.40;;;;;;5054836;28;20044;-75
2021/05/14 00:29:25;;;;;;;7.18;5.20;;;15.10;91.30;;;;;;5055104;28;20021;-76
2021/05/14 00:31:52;;;;;;;6.82;5.65;;;15.00;91.20;;;;;;5055643;28;20025;-75
2021/05/14 00:34:17;;;;;;;10.35;5.03;;;15.00;91.20;;;;;;5034809;28;20034;-75
2021/05/14 00:36:43;;;;;;;6.38;5.32;;;15.00;91.10;;;;;;5051572;28;20025;-75
2021/05/14 00:39:09;;;;;;;7.22;5.70;;;15.10;91.20;;;;;;5051952;28;20033;-75
2021/05/14 00:41:36;;;;;;;7.45;5.80;;;15.10;91.20;;;;;;5051820;28;20029;-75
2021/05/14 00:44:33;;;;;;;5.90;5.30;;;15.10;91.30;;;;;;5039980;28;20167;-75
2021/05/14 00:47:07;;;;;;;6.43;4.72;;;15.10;91.50;;;;;;5054923;28;20074;-75
2021/05/14 00:49:34;;;;;;;6.00;5.32;;;15.10;91.40;;;;;;5056010;28;20102;-75
2021/05/14 00:51:59;;;;;;;8.25;5.25;;;15.00;91.40;;;;;;5038170;28;20028;-76
2021/05/14 00:54:27;;;;;;;6.10;4.47;;;15.00;91.50;;;;;;5038333;28;20029;-76
2021/05/14 00:56:53;;;;;;;5.78;4.78;;;15.00;91.40;;;;;;5054357;28;20060;-76
2021/05/14 00:59:19;;;;;;;6.05;4.85;;;15.00;91.50;;;;;;5054321;28;20029;-76
2021/05/14 01:01:45;;;;;;;5.15;4.43;;;15.00;91.60;;;;;;5054228;28;20570;-76
2021/05/14 01:04:12;;;;;;;5.07;4.53;;;15.00;91.60;;;;;;5054795;28;20037;-76
2021/05/14 01:06:38;;;;;;;5.13;4.63;;;15.00;91.70;;;;;;5055843;28;20486;-76
2021/05/14 01:09:05;;;;;;;6.10;4.78;;;15.00;91.70;;;;;;5054404;28;20095;-76
2021/05/14 01:11:32;;;;;;;5.50;4.32;;;15.00;91.70;;;;;;5038262;28;20363;-76
2021/05/14 01:13:58;;;;;;;5.53;4.88;;;15.00;91.60;;;;;;5054414;28;20025;-76
2021/05/14 01:16:24;;;;;;;6.45;5.30;;;14.90;91.60;;;;;;5055153;28;20067;-76
2021/05/14 01:18:50;;;;;;;5.28;4.78;;;15.00;91.60;;;;;;5054400;28;20071;-75
2021/05/14 01:21:16;;;;;;;6.10;5.13;;;14.90;91.70;;;;;;5053243;28;20025;-76
2021/05/14 01:23:42;;;;;;;5.53;4.45;;;14.90;91.70;;;;;;5054311;28;20486;-76
2021/05/14 01:26:16;;;;;;;7.72;4.70;;;14.90;91.70;;;;;;5053239;28;20021;-75
2021/05/14 01:28:42;;;;;;;5.40;4.65;;;14.80;91.70;;;;;;5050541;28;20052;-76
2021/05/14 01:31:08;;;;;;;6.28;5.30;;;14.80;91.80;;;;;;5052908;28;20051;-76
2021/05/14 01:33:36;;;;;;;6.47;5.15;;;14.80;91.80;;;;;;5052990;28;20040;-76
2021/05/14 01:36:03;;;;;;;8.68;5.63;;;14.80;91.90;;;;;;5036620;28;20033;-76
2021/05/14 01:38:30;;;;;;;7.43;5.80;;;14.80;91.90;;;;;;5054335;28;20029;-75
2021/05/14 01:40:57;;;;;;;7.47;5.18;;;14.80;91.90;;;;;;5054031;28;20103;-76
2021/05/14 01:43:26;;;;;;;7.63;5.15;;;14.80;91.90;;;;;;5036252;28;20033;-75
2021/05/14 01:45:52;;;;;;;5.93;5.18;;;14.80;91.90;;;;;;5036602;28;20069;-76
2021/05/14 01:48:18;;;;;;;10.52;6.50;;;14.70;92.00;;;;;;5052603;28;20045;-75
2021/05/14 01:50:44;;;;;;;6.78;5.95;;;14.70;92.20;;;;;;5053161;28;20092;-76
2021/05/14 01:53:10;;;;;;;9.02;5.97;;;14.70;92.20;;;;;;5053808;28;20033;-76
2021/05/14 01:55:37;;;;;;;8.63;6.10;;;14.70;92.10;;;;;;5052415;28;20031;-76
2021/05/14 01:58:04;;;;;;;9.43;6.60;;;14.70;92.10;;;;;;5051983;28;20478;-75
2021/05/14 02:00:31;;;;;;;8.88;6.38;;;14.60;92.20;;;;;;5053271;28;20048;-76
2021/05/14 02:02:57;;;;;;;9.82;7.35;;;14.60;92.30;;;;;;5032257;28;20053;-76
2021/05/14 02:05:23;;;;;;;9.07;7.32;;;14.60;92.30;;;;;;5041074;28;20043;-76
2021/05/14 02:07:49;;;;;;;9.75;7.45;;;14.50;92.40;;;;;;5035822;28;20032;-75
2021/05/14 02:10:16;;;;;;;10.48;7.90;;;14.50;92.40;;;;;;5051839;28;20485;-75
2021/05/14 02:12:45;;;;;;;10.02;8.35;;;14.50;92.50;;;;;;5052004;28;20176;-76
2021/05/14 02:15:12;;;;;;;11.82;8.18;;;14.50;92.60;;;;;;5053265;28;20100;-75
2021/05/14 02:17:39;;;;;;;12.73;8.45;;;14.50;92.60;;;;;;5053265;28;20040;-76
2021/05/14 02:20:09;;;;;;;12.25;8.45;;;14.40;92.60;;;;;;5053885;28;20425;-75
2021/05/14 02:22:35;;;;;;;14.50;8.85;;;14.50;92.60;;;;;;5053134;28;20123;-75
2021/05/14 02:25:01;;;;;;;15.18;9.25;;;14.40;92.60;;;;;;5052706;28;20025;-75
2021/05/14 02:27:27;;;;;;;13.65;9.68;;;14.40;92.60;;;;;;5052742;28;20035;-75
2021/05/14 02:29:53;;;;;;;12.85;8.73;;;14.40;92.80;;;;;;5032003;28;20059;-76
2021/05/14 02:32:19;;;;;;;11.18;7.85;;;14.40;92.70;;;;;;5031742;28;20048;-75
2021/05/14 02:34:45;;;;;;;12.40;8.70;;;14.40;92.80;;;;;;5032578;28;20048;-75
2021/05/14 02:37:11;;;;;;;11.90;8.35;;;14.40;92.90;;;;;;5033109;28;20501;-75
2021/05/14 02:39:37;;;;;;;9.50;6.80;;;14.30;92.90;;;;;;5032993;28;20456;-75
2021/05/14 02:42:08;;;;;;;9.63;7.68;;;14.30;92.90;;;;;;5049025;28;20030;-75
2021/05/14 02:44:35;;;;;;;13.65;7.85;;;14.40;92.90;;;;;;5031729;28;20079;-75
2021/05/14 02:47:00;;;;;;;10.52;6.63;;;14.30;93.00;;;;;;5051242;28;20048;-75
2021/05/14 02:49:26;;;;;;;8.70;6.45;;;14.40;93.00;;;;;;5051967;28;20060;-75
2021/05/14 02:51:53;;;;;;;10.15;6.65;;;14.30;93.00;;;;;;5053308;28;20029;-79
2021/05/14 02:54:19;;;;;;;10.75;7.60;;;14.40;93.10;;;;;;5052096;28;20039;-75
2021/05/14 02:56:44;;;;;;;9.85;7.07;;;14.40;93.20;;;;;;5051770;28;20107;-74
2021/05/14 02:59:10;;;;;;;7.82;6.93;;;14.40;93.20;;;;;;5053070;28;20040;-75
2021/05/14 03:01:36;;;;;;;8.32;6.90;;;14.40;93.30;;;;;;5051925;28;20082;-76
2021/05/14 03:04:04;;;;;;;7.95;6.30;;;14.40;93.40;;;;;;5053143;28;20036;-77
2021/05/14 03:06:30;;;;;;;8.30;6.25;;;14.40;93.40;;;;;;5036057;28;20422;-75
2021/05/14 03:08:56;;;;;;;10.35;7.07;;;14.40;93.40;;;;;;5052296;28;20032;-76
2021/05/14 03:11:21;;;;;;;8.45;6.50;;;14.40;93.50;;;;;;5052111;28;20064;-76
2021/05/14 03:13:47;;;;;;;10.23;6.25;;;14.40;93.40;;;;;;5059205;28;20092;-75
2021/05/14 03:16:12;;;;;;;8.05;5.63;;;14.40;93.50;;;;;;5071873;28;20428;-75
2021/05/14 03:18:38;;;;;;;7.25;5.55;;;14.40;93.50;;;;;;5051305;28;20021;-75
2021/05/14 03:21:04;;;;;;;7.03;5.57;;;14.30;93.50;;;;;;5052237;28;20033;-75
2021/05/14 03:23:30;;;;;;;6.10;5.35;;;14.30;93.60;;;;;;5052411;28;20116;-75
2021/05/14 03:25:55;;;;;;;7.80;5.43;;;14.30;93.60;;;;;;5052161;28;20025;-75
2021/05/14 03:28:21;;;;;;;6.85;5.65;;;14.30;93.60;;;;;;5051505;28;20033;-75
2021/05/14 03:30:50;;;;;;;7.07;5.57;;;14.40;93.70;;;;;;5051809;28;20085;-75
2021/05/14 03:33:20;;;;;;;5.43;4.80;;;14.40;93.70;;;;;;5052210;28;20485;-75
2021/05/14 03:35:48;;;;;;;9.82;5.30;;;14.40;93.70;;;;;;5052345;28;20029;-75
2021/05/14 03:38:14;;;;;;;5.28;4.78;;;14.50;93.60;;;;;;5051814;28;20029;-75
2021/05/14 03:40:41;;;;;;;6.25;4.63;;;14.50;93.50;;;;;;5050522;28;20036;-75
2021/05/14 03:43:07;;;;;;;5.00;4.30;;;14.60;93.40;;;;;;5034450;28;20791;-75
2021/05/14 03:45:33;;;;;;;7.00;4.60;;;14.60;93.30;;;;;;5052776;28;20021;-74
2021/05/14 03:47:59;;;;;;;6.13;4.60;;;14.70;93.00;;;;;;5055486;28;20031;-76
2021/05/14 03:50:31;;;;;;;5.65;4.65;;;14.80;92.90;;;;;;5055307;28;20025;-75
2021/05/14 03:52:57;;;;;;;6.03;4.78;;;14.80;92.70;;;;;;5054848;28;20112;-75
2021/05/14 03:55:23;;;;;;;6.70;4.72;;;14.90;92.50;;;;;;5056096;28;20116;-76
2021/05/14 03:57:48;;;;;;;6.35;4.57;;;14.90;92.30;;;;;;5055945;28;20141;-75
2021/05/14 04:00:15;;;;;;;6.55;4.65;;;15.00;92.20;;;;;;5054071;28;20478;-76
2021/05/14 04:02:41;;;;;;;5.25;4.38;;;15.00;92.10;;;;;;5053758;28;20549;-76
2021/05/14 04:05:08;;;;;;;5.70;4.25;;;15.10;92.10;;;;;;5055721;28;20033;-77
2021/05/14 04:07:33;;;;;;;6.45;4.35;;;15.10;92.00;;;;;;5055350;28;20482;-75
2021/05/14 04:15:38;;;;;;;5.20;4.20;;;15.20;91.70;;;;;;5034666;28;20493;-79
2021/05/14 04:18:04;;;;;;;7.18;4.30;;;15.30;91.60;;;;;;5034633;28;20056;-78
2021/05/14 04:20:31;;;;;;;4.72;3.70;;;15.30;91.50;;;;;;5046171;28;20030;-79
2021/05/14 04:22:57;;;;;;;5.13;4.63;;;15.20;91.60;;;;;;5014458;28;20049;-77
2021/05/14 04:25:22;;;;;;;5.50;3.90;;;15.30;91.60;;;;;;5014781;28;20411;-80
2021/05/14 04:27:48;;;;;;;5.68;4.03;;;15.30;91.60;;;;;;5014479;28;20026;-76
2021/05/14 04:30:14;;;;;;;4.85;4.15;;;15.40;91.60;;;;;;5028376;28;20034;-76
2021/05/14 04:32:40;;;;;;;6.13;3.70;;;15.40;91.60;;;;;;5049123;28;20029;-77
2021/05/14 04:35:06;;;;;;;6.97;4.18;;;15.50;91.60;;;;;;5056034;28;20146;-75
2021/05/14 04:37:32;;;;;;;5.75;4.15;;;15.60;91.50;;;;;;5053671;28;20040;-75
2021/05/14 04:39:57;;;;;;;4.13;3.72;;;15.60;91.40;;;;;;5053939;28;20029;-77
2021/05/14 04:42:23;;;;;;;6.38;4.30;;;15.60;91.30;;;;;;5055967;28;20524;-75
2021/05/14 04:44:50;;;;;;;6.60;4.20;;;15.60;91.30;;;;;;5054169;28;20035;-79
2021/05/14 04:47:17;;;;;;;5.93;4.20;;;15.60;91.30;;;;;;5034620;28;20046;-76
2021/05/14 04:49:42;;;;;;;5.03;4.18;;;15.60;91.30;;;;;;5048934;28;20056;-76
2021/05/14 04:52:19;;;;;;;6.50;4.35;;;15.50;91.40;;;;;;5054232;28;20029;-76
2021/05/14 04:54:46;;;;;;;6.65;4.20;;;15.50;91.50;;;;;;5055748;28;20044;-78
2021/05/14 04:57:13;;;;;;;5.75;4.40;;;15.60;91.50;;;;;;5055511;28;20059;-76
2021/05/14 04:59:39;;;;;;;6.50;3.95;;;15.50;91.50;;;;;;5055501;28;20474;-76
2021/05/14 05:02:08;;;;;;;5.00;4.20;;;15.60;91.50;;;;;;5033552;28;20136;-76
2021/05/14 05:04:36;;;;;;;5.75;4.38;;;15.60;91.70;;;;;;5041825;28;20021;-78
2021/05/14 05:07:03;;;;;;;4.60;4.13;;;15.70;91.70;;;;;;5039047;28;20037;-80
2021/05/14 05:09:30;;;;;;;8.07;4.68;;;15.70;91.70;;;;;;5035573;28;20443;-79
2021/05/14 05:11:55;;;;;;;6.40;4.50;;;15.70;91.80;;;;;;5050707;28;20037;-79
2021/05/14 05:14:21;;;;;;;7.68;4.63;;;15.70;91.80;;;;;;5050136;28;20037;-75
2021/05/14 05:16:50;;;;;;;6.22;4.80;;;15.80;91.90;;;;;;5037054;28;20021;-75
2021/05/14 05:19:15;;;;;;;5.70;4.82;;;15.80;91.80;;;;;;5052827;28;20028;-75
2021/05/14 05:21:44;;;;;;;8.05;5.00;;;15.80;91.80;;;;;;5053502;28;20231;-78
2021/05/14 05:24:10;;;;;;;5.85;4.85;;;16.00;91.80;;;;;;5054111;28;20565;-75
2021/05/14 05:26:35;;;;;;;6.68;5.35;;;16.00;91.80;;;;;;5053865;28;20028;-75
2021/05/14 05:29:01;;;;;;;7.70;5.07;;;16.20;92.00;;;;;;5052739;28;20021;-76
2021/05/14 05:31:28;;;;;;;5.40;4.72;;;16.30;91.70;;;;;;5036347;28;20364;-79
2021/05/14 05:33:53;;;;;;;5.75;4.85;;;16.40;91.60;;;;;;5053890;28;20508;-76
2021/05/14 05:36:19;;;;;;;7.18;5.18;;;16.50;91.40;;;;;;5052467;28;20029;-75
2021/05/14 05:38:46;;;;;;;6.72;5.28;;;16.50;91.40;;;;;;5052485;28;20032;-74
2021/05/14 05:41:12;;;;;;;7.82;5.20;;;16.60;91.30;;;;;;5053161;28;20033;-75
2021/05/14 05:43:38;;;;;;;8.30;5.38;;;16.70;91.30;;;;;;5051732;28;20028;-74
2021/05/14 05:46:04;;;;;;;7.57;5.90;;;16.80;91.30;;;;;;5053182;28;20035;-77
2021/05/14 05:48:31;;;;;;;8.40;6.68;;;16.90;91.30;;;;;;5052255;28;20116;-75
2021/05/14 05:50:57;;;;;;;9.18;6.80;;;17.00;91.10;;;;;;5052398;28;20025;-74
2021/05/14 05:53:23;;;;;;;8.00;5.97;;;17.10;90.90;;;;;;5053229;28;20028;-76
2021/05/14 05:55:49;;;;;;;10.00;6.13;;;17.20;90.80;;;;;;5052330;28;20033;-74
2021/05/14 05:58:15;;;;;;;7.88;5.78;;;17.30;90.60;;;;;;5051697;28;20032;-75
2021/05/14 06:00:41;;;;;;;6.50;4.60;;;17.30;90.50;;;;;;5051881;28;20043;-75
2021/05/14 06:03:10;;;;;;;7.25;4.97;;;17.40;90.60;;;;;;5052598;28;20491;-74
2021/05/14 06:05:37;;;;;;;5.85;4.68;;;17.40;90.70;;;;;;5052780;28;20082;-74
2021/05/14 06:08:03;;;;;;;7.05;5.32;;;17.50;90.80;;;;;;5052013;28;20021;-75
2021/05/14 06:10:30;;;;;;;7.75;5.45;;;17.60;90.70;;;;;;5051390;28;20092;-74
2021/05/14 06:12:56;;;;;;;10.23;5.88;;;17.70;90.60;;;;;;5052756;28;20029;-74
2021/05/14 06:15:22;;;;;;;6.22;5.40;;;17.80;90.40;;;;;;5052469;28;20035;-75
2021/05/14 06:17:50;;;;;;;6.22;4.88;;;17.90;90.40;;;;;;5053923;28;20064;-74
2021/05/14 06:20:20;;;;;;;8.38;5.10;;;18.00;90.40;;;;;;5053280;28;20040;-75
2021/05/14 06:22:46;;;;;;;8.45;5.72;;;18.00;90.20;;;;;;5054223;28;20027;-75
2021/05/14 06:25:12;;;;;;;7.90;5.38;;;18.10;89.90;;;;;;5053845;28;20033;-75
2021/05/14 06:27:37;;;;;;;5.95;5.25;;;18.10;89.70;;;;;;5053752;28;20029;-75
2021/05/14 06:30:06;;;;;;;5.30;4.65;;;18.00;89.50;;;;;;5052847;28;20032;-74
2021/05/14 06:32:32;;;;;;;6.63;5.35;;;18.00;89.70;;;;;;5053837;28;20021;-74
2021/05/14 06:34:58;;;;;;;6.38;4.95;;;18.00;89.50;;;;;;5053248;28;20061;-75
2021/05/14 06:37:25;;;;;;;6.45;4.88;;;17.90;89.80;;;;;;5053993;28;20059;-74
2021/05/14 06:39:52;;;;;;;7.38;5.30;;;17.90;90.00;;;;;;5053493;28;20049;-75
2021/05/14 06:42:17;;;;;;;5.68;5.10;;;17.90;90.10;;;;;;5053621;28;20094;-74
2021/05/14 06:44:43;;;;;;;7.75;5.70;;;18.00;90.10;;;;;;5054032;28;20451;-74
2021/05/14 06:47:10;;;;;;;5.97;5.13;;;18.00;90.10;;;;;;5052108;28;20021;-74
2021/05/14 06:49:36;;;;;;;8.23;5.28;;;18.00;90.10;;;;;;5053628;28;20013;-74
2021/05/14 06:52:02;;;;;;;7.45;5.60;;;18.00;90.10;;;;;;5052401;28;20029;-75
2021/05/14 06:54:28;;;;;;;7.82;5.40;;;18.00;90.00;;;;;;5053533;28;20040;-74
2021/05/14 06:56:54;;;;;;;6.45;5.80;;;18.00;90.00;;;;;;5054144;28;20028;-74
2021/05/14 06:59:20;;;;;;;7.57;5.65;;;18.10;90.00;;;;;;5053750;28;20063;-74
2021/05/14 07:01:47;;;;;;;9.35;5.60;;;18.10;90.10;;;;;;5053448;28;20033;-74
2021/05/14 07:04:13;;;;;;;8.20;5.53;;;18.20;90.20;;;;;;5052149;28;20486;-75
2021/05/14 07:06:39;;;;;;;10.25;6.10;;;18.30;90.20;;;;;;5052249;28;20025;-74
2021/05/14 07:09:05;;;;;;;8.38;5.50;;;18.40;90.00;;;;;;5052278;28;20382;-74
2021/05/14 07:11:31;;;;;;;8.20;6.00;;;18.50;90.00;;;;;;5053418;28;20021;-74
2021/05/14 07:13:58;;;;;;;7.88;5.97;;;18.60;89.80;;;;;;5052182;28;20474;-74
2021/05/14 07:16:23;;;;;;;8.25;5.70;;;18.80;89.40;;;;;;5051238;28;20397;-74
2021/05/14 07:18:50;;;;;;;7.38;6.32;;;18.80;89.20;;;;;;5050846;28;20116;-74
2021/05/14 07:21:16;;;;;;;11.05;6.38;;;18.90;88.70;;;;;;5054945;28;20098;-75
2021/05/14 07:23:42;;;;;;;8.00;5.72;;;18.90;88.60;;;;;;5055650;28;20060;-74
2021/05/14 07:26:08;;;;;;;7.47;5.97;;;19.00;88.50;;;;;;5054558;28;20029;-74
2021/05/14 07:28:33;;;;;;;8.43;6.38;;;19.10;88.00;;;;;;5054521;28;20021;-75
2021/05/14 07:31:00;;;;;;;9.60;6.07;;;19.10;87.60;;;;;;5055657;28;20048;-75
2021/05/14 07:33:26;;;;;;;7.55;5.75;;;19.10;87.60;;;;;;5055628;28;20041;-74
2021/05/14 07:35:52;;;;;;;8.40;5.63;;;19.20;87.50;;;;;;5054032;28;20086;-74
2021/05/14 07:38:17;;;;;;;12.60;6.13;;;19.20;87.50;;;;;;5055311;28;20033;-75
2021/05/14 07:40:43;;;;;;;7.22;5.72;;;19.30;87.80;;;;;;5055743;28;20020;-74
2021/05/14 07:43:09;;;;;;;7.00;5.80;;;19.40;87.60;;;;;;5054238;28;20036;-75
2021/05/14 07:45:35;;;;;;;7.50;6.10;;;19.50;87.40;;;;;;5055486;28;20021;-74
2021/05/14 07:48:00;;;;;;;10.05;6.13;;;19.40;87.20;;;;;;5054890;28;20501;-74
2021/05/14 07:50:28;;;;;;;7.88;6.57;;;19.40;87.20;;;;;;5054299;28;20490;-75
2021/05/14 07:52:54;;;;;;;12.43;7.03;;;19.30;87.10;;;;;;5055443;28;20021;-75
2021/05/14 07:55:19;;;;;;;12.13;7.63;;;19.20;86.90;;;;;;5054001;28;20032;-74
2021/05/14 07:57:45;;;;;;;10.60;7.05;;;19.20;86.90;;;;;;5054178;28;20032;-75
2021/05/14 08:00:11;;;;;;;9.13;6.55;;;19.20;87.00;;;;;;5055200;28;20029;-74
2021/05/14 08:02:38;;;;;;;10.30;7.10;;;19.10;87.30;;;;;;5053800;28;20064;-74
2021/05/14 08:05:04;;;;;;;9.57;6.47;;;19.20;87.40;;;;;;5037272;28;20378;-74
2021/05/14 08:07:31;;;;;;;10.63;6.57;;;19.20;87.00;;;;;;5055132;28;20029;-74
2021/05/14 08:09:56;;;;;;;8.73;6.97;;;19.30;86.90;;;;;;5054006;28;20025;-74
2021/05/14 08:12:23;;;;;;;10.15;7.53;;;19.40;86.30;;;;;;5054938;28;20028;-74
2021/05/14 08:14:50;;;;;;;7.50;6.65;;;19.50;85.80;;;;;;5054832;28;20386;-74
2021/05/14 08:17:16;;;;;;;10.88;6.50;;;19.40;85.90;;;;;;5055909;28;20021;-74
2021/05/14 08:19:41;;;;;;;11.85;7.05;;;19.50;85.70;;;;;;5038526;28;20029;-75
2021/05/14 08:22:07;;;;;;;10.63;7.40;;;19.50;85.50;;;;;;5056691;28;20099;-73
2021/05/14 08:24:33;;;;;;;9.77;7.50;;;19.50;84.60;;;;;;5054977;28;20107;-74
2021/05/14 08:26:58;;;;;;;10.98;7.55;;;19.40;84.10;;;;;;5056070;28;20468;-74
2021/05/14 08:29:25;;;;;;;9.20;7.25;;;19.50;84.20;;;;;;5056060;28;20029;-73
2021/05/14 08:31:51;;;;;;;13.05;7.50;;;19.50;83.50;;;;;;5055811;28;20017;-75
2021/05/14 08:34:17;;;;;;;10.68;7.38;;;19.50;83.30;;;;;;5054719;28;20095;-75
2021/05/14 08:36:43;;;;;;;9.38;6.72;;;19.50;83.20;;;;;;5055159;28;20060;-74
2021/05/14 08:39:11;;;;;;;9.50;6.63;;;19.60;83.20;;;;;;5055851;28;20406;-79
2021/05/14 08:41:39;;;;;;;10.45;6.65;;;19.70;83.20;;;;;;5055992;28;20029;-73
2021/05/14 08:44:06;;;;;;;8.18;5.88;;;19.70;81.50;;;;;;5054845;28;20029;-75
2021/05/14 08:46:35;;;;;;;7.35;6.45;;;19.80;82.20;;;;;;5055893;28;20394;-74
2021/05/14 08:49:01;;;;;;;7.03;5.75;;;19.80;81.10;;;;;;5054576;28;20057;-74
2021/05/14 08:51:29;;;;;;;12.10;5.78;;;19.80;80.80;;;;;;5054705;28;20031;-81
2021/05/14 08:54:06;;;;;;;7.28;5.70;;;19.90;80.40;;;;;;5055415;28;20057;-74
2021/05/14 08:56:33;;;;;;;8.43;6.15;;;19.80;80.40;;;;;;5055578;28;20558;-75
2021/05/14 08:59:00;;;;;;;8.63;5.72;;;19.80;80.20;;;;;;5037618;28;20032;-74
2021/05/14 09:01:26;;;;;;;7.50;5.70;;;19.70;80.10;;;;;;5054482;28;20554;-74
2021/05/14 09:04:07;;;;;;;7.75;5.28;;;19.70;80.70;;;;;;5054966;28;20057;-74
2021/05/14 09:06:35;;;;;;;7.20;5.75;;;19.70;81.40;;;;;;5053635;28;20079;-73
2021/05/14 09:09:05;;;;;;;7.63;5.55;;;19.70;81.60;;;;;;5054153;28;20108;-74
2021/05/14 09:11:48;;;;;;;7.55;5.32;;;19.70;81.40;;;;;;5054380;28;20021;-73
2021/05/14 09:14:47;;;;;;;7.05;5.82;;;19.80;81.30;;;;;;5055562;28;20053;-73
2021/05/14 09:17:14;;;;;;;5.78;4.72;;;19.80;81.40;;;;;;5051809;28;20394;-74
2021/05/14 09:19:43;;;;;;;7.70;5.30;;;19.80;81.50;;;;;;5052929;28;20027;-74
2021/05/14 09:22:16;;;;;;;6.35;5.47;;;19.90;81.70;;;;;;5052872;28;20021;-76
2021/05/14 09:24:46;;;;;;;8.20;5.43;;;19.90;81.20;;;;;;5052738;28;20025;-79
2021/05/14 09:27:31;;;;;;;;;;;19.90;80.80;;;;;;5052061;28;20025;-74
2021/05/14 09:30:02;;;;;;;7.00;5.40;;;19.80;80.60;;;;;;5052518;28;19935;-75
2021/05/14 09:32:28;;;;;;;8.13;5.47;;;19.80;80.70;;;;;;5051070;28;20496;-74
2021/05/14 09:34:57;;;;;;;8.20;5.40;;;19.90;80.40;;;;;;5051248;28;20033;-74
2021/05/14 09:37:25;;;;;;;7.15;5.80;;;19.90;80.70;;;;;;5052724;28;20096;-73
2021/05/14 09:40:13;;;;;;;8.23;5.50;;;20.00;80.10;;;;;;5051195;28;20032;-74
2021/05/14 09:42:39;;;;;;;6.47;4.70;;;20.00;80.50;;;;;;5051552;28;20017;-77
2021/05/14 09:45:21;;;;;;;6.28;5.00;;;20.10;80.30;;;;;;5051132;28;20387;-74
2021/05/14 09:48:14;;;;;;;8.73;5.13;;;20.10;79.50;;;;;;5051021;28;20390;-73
2021/05/14 09:50:40;;;;;;;8.48;5.05;;;20.10;79.00;;;;;;5052316;28;20060;-73
2021/05/14 09:53:09;;;;;;;7.55;4.43;;;20.10;79.00;;;;;;5052914;28;20058;-75
2021/05/14 09:55:37;;;;;;;7.53;4.70;;;20.10;79.10;;;;;;5051586;28;20025;-73
2021/05/14 09:58:19;;;;;;;5.93;4.30;;;20.20;79.30;;;;;;5051514;28;20025;-73
2021/05/14 10:00:46;;;;;;;4.80;4.30;;;20.20;79.30;;;;;;5051027;28;20028;-74
2021/05/14 10:03:16;;;;;;;4.75;4.07;;;20.10;79.30;;;;;;5051400;28;20045;-74
2021/05/14 10:05:42;;;;;;;;;;;20.20;79.30;;;;;;5053364;28;20017;-72
2021/05/14 10:08:10;;;;;;;6.35;4.20;;;20.20;79.50;;;;;;5084353;28;19931;-73
2021/05/14 10:10:37;;;;;;;5.03;3.92;;;20.30;78.80;;;;;;5052253;28;20370;-72
2021/05/14 10:13:03;;;;;;;6.55;4.43;;;20.40;78.50;;;;;;5052124;28;20037;-73
2021/05/14 10:15:31;;;;;;;6.18;4.70;;;20.50;77.70;;;;;;5051083;28;20036;-73
2021/05/14 10:17:58;;;;;;;6.32;5.10;;;20.50;78.20;;;;;;5053674;28;20032;-74
2021/05/14 10:20:28;;;;;;;9.52;4.45;;;20.50;78.30;;;;;;5052367;28;20028;-75
2021/05/14 10:22:57;;;;;;;5.93;4.33;;;20.60;78.80;;;;;;5052376;28;20090;-76
2021/05/14 10:25:37;;;;;;;6.63;4.40;;;20.70;78.50;;;;;;5052918;28;20040;-74
2021/05/14 10:28:18;;;;;;;6.05;3.75;;;20.70;77.90;;;;;;5052573;28;20028;-73
2021/05/14 10:31:05;;;;;;;4.75;4.32;;;20.70;78.60;;;;;;5054109;28;20021;-74
2021/05/14 10:33:41;;;;;;;6.85;4.15;;;20.70;78.30;;;;;;5053593;28;20021;-74
2021/05/14 10:36:20;;;;;;;8.88;4.90;;;20.70;77.30;;;;;;5053158;28;20151;-74
2021/05/14 10:39:02;;;;;;;5.30;4.20;;;20.80;77.60;;;;;;5053783;28;20052;-86
2021/05/14 10:41:28;;;;;;;5.82;4.80;;;20.90;76.80;;;;;;5052365;28;20470;-74
2021/05/14 10:43:58;;;;;;;9.65;5.25;;;21.00;77.00;;;;;;5053256;28;20029;-75
2021/05/14 10:46:29;;;;;;;60.53;20.25;;;21.10;77.40;;;;;;5052314;28;20528;-74
2021/05/14 10:49:16;;;;;;;28.08;9.48;;;21.20;78.00;;;;;;5053109;28;20430;-74
2021/05/14 10:51:50;;;;;;;12.10;7.40;;;21.20;77.60;;;;;;5036147;28;20032;-74
2021/05/14 10:54:38;;;;;;;6.28;4.93;;;21.30;77.80;;;;;;5053323;28;20047;-75
2021/05/14 10:57:07;;;;;;;8.27;4.85;;;21.40;76.60;;;;;;5051915;28;20064;-74
2021/05/14 10:59:43;;;;;;;6.10;3.85;;;21.50;76.00;;;;;;5048749;28;20036;-74
2021/05/14 11:02:28;;;;;;;7.47;3.95;;;21.50;77.00;;;;;;5053246;28;20513;-74
2021/05/14 11:04:56;;;;;;;39.75;15.18;;;21.60;76.90;;;;;;5052953;28;20053;-74
2021/05/14 11:07:41;;;;;;;48.20;20.80;;;21.70;76.40;;;;;;5052299;28;20518;-73
2021/05/14 11:10:12;;;;;;;8.70;4.97;;;21.90;77.30;;;;;;5052188;28;20025;-75
2021/05/14 11:12:42;;;;;;;5.57;4.85;;;21.90;75.70;;;;;;5053115;28;20108;-75
2021/05/14 11:15:14;;;;;;;6.10;4.55;;;22.00;75.10;;;;;;5052372;28;20116;-74
2021/05/14 11:17:40;;;;;;;6.28;4.78;;;22.10;73.70;;;;;;5051395;28;20090;-73
2021/05/14 11:20:21;;;;;;;7.35;4.53;;;22.00;73.90;;;;;;5049945;28;20031;-74
2021/05/14 11:22:48;;;;;;;6.68;4.93;;;22.10;74.80;;;;;;5049636;28;20064;-73
2021/05/14 11:25:18;;;;;;;6.20;4.60;;;22.10;74.20;;;;;;5050045;28;20021;-73
2021/05/14 11:27:45;;;;;;;7.95;4.00;;;22.20;74.10;;;;;;5050059;28;20497;-77
2021/05/14 11:30:13;;;;;;;6.20;4.60;;;22.20;73.80;;;;;;5050473;28;20037;-75
2021/05/14 11:32:43;;;;;;;6.97;3.75;;;22.30;72.90;;;;;;5052898;28;20016;-77
2021/05/14 11:35:14;;;;;;;5.38;3.33;;;22.30;71.60;;;;;;5051548;28;20101;-74
2021/05/14 11:37:54;;;;;;;31.70;10.43;;;22.30;71.90;;;;;;5051406;28;20053;-75
2021/05/14 11:40:31;;;;;;;31.73;11.05;;;22.50;72.60;;;;;;5051471;28;20013;-74
2021/05/14 11:42:59;;;;;;;16.38;3.72;;;22.70;73.10;;;;;;5050248;28;20041;-74
2021/05/14 11:45:45;;;;;;;6.72;3.53;;;22.90;71.90;;;;;;5050882;28;20043;-74
2021/05/14 11:48:13;;;;;;;4.20;2.80;;;23.00;71.40;;;;;;5050592;28;20021;-87
2021/05/14 11:50:47;;;;;;;4.47;2.72;;;23.10;66.80;;;;;;5052960;28;20021;-82
2021/05/14 11:53:16;;;;;;;4.03;2.85;;;23.20;66.70;;;;;;5052906;28;20028;-80
2021/05/14 11:55:44;;;;;;;6.00;2.60;;;23.30;64.20;;;;;;5052205;28;20068;-77
2021/05/14 11:58:10;;;;;;;3.67;2.97;;;23.50;63.20;;;;;;5051571;28;20107;-86
2021/05/14 12:00:54;;;;;;;4.38;2.90;;;23.60;64.40;;;;;;5052867;28;20082;-78
2021/05/14 12:03:22;;;;;;;5.25;3.50;;;23.80;63.50;;;;;;5051379;28;20041;-83
2021/05/14 12:05:50;;;;;;;4.85;3.25;;;23.80;62.00;;;;;;5053269;28;20040;-83
2021/05/14 12:08:24;;;;;;;4.90;3.10;;;23.80;62.60;;;;;;5038751;28;20082;-87
2021/05/14 12:11:10;;;;;;;4.88;2.47;;;24.10;63.00;;;;;;5038763;28;20443;-89
2021/05/14 12:13:40;;;;;;;3.90;2.50;;;25.00;61.80;;;;;;5055221;28;20044;-79
2021/05/14 12:16:15;;;;;;;15.15;2.63;;;26.30;60.80;;;;;;5055218;28;20025;-87
2021/05/14 12:18:48;;;;;;;6.13;2.30;;;27.80;58.20;;;;;;5055931;28;20032;-80
2021/05/14 12:21:29;;;;;;;6.05;2.63;;;29.20;52.60;;;;;;5056771;28;20049;-79
2021/05/14 12:23:56;;;;;;;4.05;2.15;;;29.90;48.10;;;;;;5056032;28;20107;-79
2021/05/14 12:26:22;;;;;;;4.63;2.30;;;29.50;48.80;;;;;;5056559;28;20029;-78
2021/05/14 12:28:51;;;;;;;3.40;2.00;;;28.80;48.90;;;;;;5055435;28;20056;-75
2021/05/14 12:31:26;;;;;;;;;;;28.20;49.70;;;;;;5056696;28;20021;-81
2021/05/14 12:34:00;;;;;;;5.13;2.30;;;27.50;50.50;;;;;;5055199;28;20365;-76
2021/05/14 12:36:26;;;;;;;3.47;2.22;;;27.20;51.00;;;;;;5054879;28;20032;-78
2021/05/14 12:39:05;;;;;;;3.65;1.98;;;27.40;52.50;;;;;;5054314;28;20028;-76
2021/05/14 12:41:33;;;;;;;2.25;1.90;;;28.00;50.80;;;;;;5055142;28;20029;-77
2021/05/14 12:44:21;;;;;;;2.80;1.90;;;28.40;50.20;;;;;;5056063;28;20025;-79
2021/05/14 12:46:55;;;;;;;2.55;1.80;;;29.10;50.20;;;;;;5055953;28;20103;-78
2021/05/14 12:49:21;;;;;;;2.22;1.80;;;30.10;49.90;;;;;;5054571;28;20033;-76
2021/05/14 12:51:59;;;;;;;2.00;1.80;;;31.00;48.60;;;;;;5055776;28;20100;-76
2021/05/14 12:54:24;;;;;;;2.88;1.80;;;32.00;46.00;;;;;;5055887;28;20056;-79
2021/05/14 12:56:50;;;;;;;5.65;2.20;;;31.90;43.70;;;;;;5054560;28;20029;-79